sensor_id;sensor_type;location;lat;lon;timestamp;P1;durP1;ratioP1;P2;durP2;ratioP2
9522;SDS011;63165;43.016;25.784;2023-06-19T00:01:28;24.50;;;5.57;;
9522;SDS011;63165;43.016;25.784;2023-06-19T00:03:55;19.25;;;5.57;;
9522;SDS011;63165;43.016;25.784;2023-06-19T00:06:22;22.67;;;5.55;;
9522;SDS011;63165;43.016;25.784;2023-06-19T00:08:50;16.88;;;5.20;;
9522;SDS011;63165;43.016;25.784;2023-06-19T00:11:18;24.63;;;6.00;;
9522;SDS011;63165;43.016;25.784;2023-06-19T00:13:45;17.48;;;5.88;;
9522;SDS011;63165;43.016;25.784;2023-06-19T00:16:14;16.70;;;5.35;;
9522;SDS011;63165;43.016;25.784;2023-06-19T00:18:41;14.93;;;5.68;;
9522;SDS011;63165;43.016;25.784;2023-06-19T00:21:08;14.02;;;5.70;;
9522;SDS011;63165;43.016;25.784;2023-06-19T00:23:36;18.02;;;6.50;;
9522;SDS011;63165;43.016;25.784;2023-06-19T00:26:03;21.67;;;5.22;;
9522;SDS011;63165;43.016;25.784;2023-06-19T00:28:32;23.27;;;5.97;;
9522;SDS011;63165;43.016;25.784;2023-06-19T00:30:59;18.95;;;5.60;;
9522;SDS011;63165;43.016;25.784;2023-06-19T00:33:28;20.45;;;5.57;;
9522;SDS011;63165;43.016;25.784;2023-06-19T00:35:56;20.85;;;6.20;;
9522;SDS011;63165;43.016;25.784;2023-06-19T00:38:23;21.67;;;6.88;;
9522;SDS011;63165;43.016;25.784;2023-06-19T00:40:50;21.08;;;7.30;;
9522;SDS011;63165;43.016;25.784;2023-06-19T00:43:17;28.08;;;10.52;;
9522;SDS011;63165;43.016;25.784;2023-06-19T00:45:45;27.20;;;10.18;;
9522;SDS011;63165;43.016;25.784;2023-06-19T00:48:12;22.63;;;8.15;;
9522;SDS011;63165;43.016;25.784;2023-06-19T00:50:41;23.98;;;7.03;;
9522;SDS011;63165;43.016;25.784;2023-06-19T00:53:09;17.17;;;5.80;;
9522;SDS011;63165;43.016;25.784;2023-06-19T00:55:37;20.83;;;7.00;;
9522;SDS011;63165;43.016;25.784;2023-06-19T00:58:04;27.67;;;6.60;;
9522;SDS011;63165;43.016;25.784;2023-06-19T01:00:32;18.52;;;6.10;;
9522;SDS011;63165;43.016;25.784;2023-06-19T01:02:59;24.73;;;6.13;;
9522;SDS011;63165;43.016;25.784;2023-06-19T01:05:27;19.70;;;6.60;;
9522;SDS011;63165;43.016;25.784;2023-06-19T01:07:58;14.43;;;6.03;;
9522;SDS011;63165;43.016;25.784;2023-06-19T01:10:28;27.55;;;6.75;;
9522;SDS011;63165;43.016;25.784;2023-06-19T01:13:00;21.70;;;8.02;;
9522;SDS011;63165;43.016;25.784;2023-06-19T01:15:29;18.20;;;7.20;;
9522;SDS011;63165;43.016;25.784;2023-06-19T01:17:57;30.77;;;7.38;;
9522;SDS011;63165;43.016;25.784;2023-06-19T01:20:25;17.45;;;7.07;;
9522;SDS011;63165;43.016;25.784;2023-06-19T01:22:55;20.27;;;7.80;;
9522;SDS011;63165;43.016;25.784;2023-06-19T01:25:22;20.02;;;8.00;;
9522;SDS011;63165;43.016;25.784;2023-06-19T01:27:50;18.02;;;7.38;;
9522;SDS011;63165;43.016;25.784;2023-06-19T01:30:18;25.70;;;6.53;;
9522;SDS011;63165;43.016;25.784;2023-06-19T01:32:47;24.92;;;6.30;;
9522;SDS011;63165;43.016;25.784;2023-06-19T01:35:21;16.70;;;6.40;;
9522;SDS011;63165;43.016;25.784;2023-06-19T01:37:51;24.50;;;5.68;;
9522;SDS011;63165;43.016;25.784;2023-06-19T01:40:21;25.92;;;6.90;;
9522;SDS011;63165;43.016;25.784;2023-06-19T01:42:51;21.92;;;5.82;;
9522;SDS011;63165;43.016;25.784;2023-06-19T01:45:19;20.80;;;6.18;;
9522;SDS011;63165;43.016;25.784;2023-06-19T01:47:47;20.05;;;5.90;;
9522;SDS011;63165;43.016;25.784;2023-06-19T01:50:14;13.05;;;5.68;;
9522;SDS011;63165;43.016;25.784;2023-06-19T01:52:42;20.08;;;7.70;;
9522;SDS011;63165;43.016;25.784;2023-06-19T01:55:09;17.38;;;6.97;;
9522;SDS011;63165;43.016;25.784;2023-06-19T01:57:38;17.95;;;5.45;;
9522;SDS011;63165;43.016;25.784;2023-06-19T02:00:05;18.45;;;6.20;;
9522;SDS011;63165;43.016;25.784;2023-06-19T02:02:35;24.80;;;7.40;;
9522;SDS011;63165;43.016;25.784;2023-06-19T02:05:02;25.42;;;7.13;;
9522;SDS011;63165;43.016;25.784;2023-06-19T02:07:30;25.05;;;6.65;;
9522;SDS011;63165;43.016;25.784;2023-06-19T02:09:57;17.70;;;5.93;;
9522;SDS011;63165;43.016;25.784;2023-06-19T02:12:24;19.80;;;6.40;;
9522;SDS011;63165;43.016;25.784;2023-06-19T02:14:53;15.75;;;6.00;;
9522;SDS011;63165;43.016;25.784;2023-06-19T02:17:20;27.13;;;5.90;;
9522;SDS011;63165;43.016;25.784;2023-06-19T02:19:50;20.45;;;5.47;;
9522;SDS011;63165;43.016;25.784;2023-06-19T02:22:18;13.63;;;4.88;;
9522;SDS011;63165;43.016;25.784;2023-06-19T02:24:45;17.58;;;5.55;;
9522;SDS011;63165;43.016;25.784;2023-06-19T02:27:12;22.20;;;5.88;;
9522;SDS011;63165;43.016;25.784;2023-06-19T02:29:41;16.08;;;5.03;;
9522;SDS011;63165;43.016;25.784;2023-06-19T02:32:10;17.65;;;5.38;;
9522;SDS011;63165;43.016;25.784;2023-06-19T02:34:37;17.05;;;5.85;;
9522;SDS011;63165;43.016;25.784;2023-06-19T02:37:04;15.10;;;5.45;;
9522;SDS011;63165;43.016;25.784;2023-06-19T02:39:33;17.95;;;5.80;;
9522;SDS011;63165;43.016;25.784;2023-06-19T02:42:00;22.05;;;6.60;;
9522;SDS011;63165;43.016;25.784;2023-06-19T02:44:27;23.67;;;7.03;;
9522;SDS011;63165;43.016;25.784;2023-06-19T02:46:54;22.13;;;6.13;;
9522;SDS011;63165;43.016;25.784;2023-06-19T02:49:23;15.68;;;5.90;;
9522;SDS011;63165;43.016;25.784;2023-06-19T02:51:51;15.68;;;6.10;;
9522;SDS011;63165;43.016;25.784;2023-06-19T02:54:18;17.27;;;6.68;;
9522;SDS011;63165;43.016;25.784;2023-06-19T02:56:45;20.85;;;6.90;;
9522;SDS011;63165;43.016;25.784;2023-06-19T02:59:12;22.50;;;6.18;;
9522;SDS011;63165;43.016;25.784;2023-06-19T03:01:40;21.63;;;6.93;;
9522;SDS011;63165;43.016;25.784;2023-06-19T03:04:07;21.80;;;7.00;;
9522;SDS011;63165;43.016;25.784;2023-06-19T03:06:36;19.48;;;6.93;;
9522;SDS011;63165;43.016;25.784;2023-06-19T03:09:05;21.05;;;6.35;;
9522;SDS011;63165;43.016;25.784;2023-06-19T03:11:37;19.88;;;6.68;;
9522;SDS011;63165;43.016;25.784;2023-06-19T03:14:05;15.75;;;6.18;;
9522;SDS011;63165;43.016;25.784;2023-06-19T03:16:33;14.10;;;5.63;;
9522;SDS011;63165;43.016;25.784;2023-06-19T03:19:01;23.58;;;6.38;;
9522;SDS011;63165;43.016;25.784;2023-06-19T03:21:28;20.23;;;6.25;;
9522;SDS011;63165;43.016;25.784;2023-06-19T03:23:57;28.00;;;7.07;;
9522;SDS011;63165;43.016;25.784;2023-06-19T03:26:24;21.95;;;7.40;;
9522;SDS011;63165;43.016;25.784;2023-06-19T03:28:52;26.85;;;6.68;;
9522;SDS011;63165;43.016;25.784;2023-06-19T03:31:19;24.65;;;6.80;;
9522;SDS011;63165;43.016;25.784;2023-06-19T03:33:46;16.17;;;6.65;;
9522;SDS011;63165;43.016;25.784;2023-06-19T03:36:14;23.05;;;7.07;;
9522;SDS011;63165;43.016;25.784;2023-06-19T03:38:41;20.52;;;7.35;;
9522;SDS011;63165;43.016;25.784;2023-06-19T03:41:10;28.52;;;7.50;;
9522;SDS011;63165;43.016;25.784;2023-06-19T03:43:37;29.13;;;8.02;;
9522;SDS011;63165;43.016;25.784;2023-06-19T03:46:04;24.40;;;7.45;;
9522;SDS011;63165;43.016;25.784;2023-06-19T03:48:31;24.25;;;7.80;;
9522;SDS011;63165;43.016;25.784;2023-06-19T03:50:59;25.08;;;7.45;;
9522;SDS011;63165;43.016;25.784;2023-06-19T03:53:26;24.30;;;6.95;;
9522;SDS011;63165;43.016;25.784;2023-06-19T03:55:54;21.92;;;7.00;;
9522;SDS011;63165;43.016;25.784;2023-06-19T03:58:23;23.25;;;7.57;;
9522;SDS011;63165;43.016;25.784;2023-06-19T04:00:50;18.95;;;6.82;;
9522;SDS011;63165;43.016;25.784;2023-06-19T04:03:18;30.88;;;8.57;;
9522;SDS011;63165;43.016;25.784;2023-06-19T04:05:45;23.85;;;7.32;;
9522;SDS011;63165;43.016;25.784;2023-06-19T04:08:12;21.92;;;8.30;;
9522;SDS011;63165;43.016;25.784;2023-06-19T04:10:40;34.92;;;7.93;;
9522;SDS011;63165;43.016;25.784;2023-06-19T04:13:07;24.25;;;8.32;;
9522;SDS011;63165;43.016;25.784;2023-06-19T04:15:36;28.33;;;8.55;;
9522;SDS011;63165;43.016;25.784;2023-06-19T04:18:03;31.45;;;8.85;;
9522;SDS011;63165;43.016;25.784;2023-06-19T04:20:30;28.27;;;8.77;;
9522;SDS011;63165;43.016;25.784;2023-06-19T04:22:58;25.02;;;9.07;;
9522;SDS011;63165;43.016;25.784;2023-06-19T04:25:26;25.08;;;8.55;;
9522;SDS011;63165;43.016;25.784;2023-06-19T04:27:53;21.48;;;8.65;;
9522;SDS011;63165;43.016;25.784;2023-06-19T04:30:20;21.02;;;7.95;;
9522;SDS011;63165;43.016;25.784;2023-06-19T04:32:49;22.13;;;8.55;;
9522;SDS011;63165;43.016;25.784;2023-06-19T04:35:18;27.15;;;8.63;;
9522;SDS011;63165;43.016;25.784;2023-06-19T04:37:45;34.38;;;9.38;;
9522;SDS011;63165;43.016;25.784;2023-06-19T04:40:14;30.52;;;9.15;;
9522;SDS011;63165;43.016;25.784;2023-06-19T04:42:41;25.73;;;9.43;;
9522;SDS011;63165;43.016;25.784;2023-06-19T04:45:08;28.05;;;9.15;;
9522;SDS011;63165;43.016;25.784;2023-06-19T04:47:37;29.92;;;9.57;;
9522;SDS011;63165;43.016;25.784;2023-06-19T04:50:07;29.55;;;8.90;;
9522;SDS011;63165;43.016;25.784;2023-06-19T04:52:35;29.42;;;9.15;;
9522;SDS011;63165;43.016;25.784;2023-06-19T04:55:04;23.85;;;9.05;;
9522;SDS011;63165;43.016;25.784;2023-06-19T04:57:34;27.45;;;9.63;;
9522;SDS011;63165;43.016;25.784;2023-06-19T05:00:02;37.63;;;9.90;;
9522;SDS011;63165;43.016;25.784;2023-06-19T05:02:31;23.65;;;9.57;;
9522;SDS011;63165;43.016;25.784;2023-06-19T05:04:58;25.58;;;9.43;;
9522;SDS011;63165;43.016;25.784;2023-06-19T05:07:30;32.72;;;9.88;;
9522;SDS011;63165;43.016;25.784;2023-06-19T05:09:57;25.77;;;9.32;;
9522;SDS011;63165;43.016;25.784;2023-06-19T05:12:24;26.42;;;9.20;;
9522;SDS011;63165;43.016;25.784;2023-06-19T05:14:52;22.48;;;9.90;;
9522;SDS011;63165;43.016;25.784;2023-06-19T05:17:19;23.67;;;9.65;;
9522;SDS011;63165;43.016;25.784;2023-06-19T05:19:48;23.08;;;9.13;;
9522;SDS011;63165;43.016;25.784;2023-06-19T05:22:19;25.55;;;9.68;;
9522;SDS011;63165;43.016;25.784;2023-06-19T05:24:50;22.23;;;9.38;;
9522;SDS011;63165;43.016;25.784;2023-06-19T05:27:17;33.10;;;9.43;;
9522;SDS011;63165;43.016;25.784;2023-06-19T05:29:45;22.58;;;9.07;;
9522;SDS011;63165;43.016;25.784;2023-06-19T05:32:12;22.85;;;9.00;;
9522;SDS011;63165;43.016;25.784;2023-06-19T05:34:39;18.92;;;8.70;;
9522;SDS011;63165;43.016;25.784;2023-06-19T05:37:08;19.25;;;8.40;;
9522;SDS011;63165;43.016;25.784;2023-06-19T05:39:36;22.10;;;8.27;;
9522;SDS011;63165;43.016;25.784;2023-06-19T05:42:06;18.70;;;8.38;;
9522;SDS011;63165;43.016;25.784;2023-06-19T05:44:34;24.55;;;8.32;;
9522;SDS011;63165;43.016;25.784;2023-06-19T05:47:02;23.92;;;8.57;;
9522;SDS011;63165;43.016;25.784;2023-06-19T05:49:29;24.75;;;8.55;;
9522;SDS011;63165;43.016;25.784;2023-06-19T05:51:57;17.02;;;7.68;;
9522;SDS011;63165;43.016;25.784;2023-06-19T05:54:25;19.92;;;8.50;;
9522;SDS011;63165;43.016;25.784;2023-06-19T05:56:52;19.33;;;7.72;;
9522;SDS011;63165;43.016;25.784;2023-06-19T05:59:23;22.10;;;8.32;;
9522;SDS011;63165;43.016;25.784;2023-06-19T06:01:51;21.05;;;7.38;;
9522;SDS011;63165;43.016;25.784;2023-06-19T06:04:20;23.08;;;7.85;;
9522;SDS011;63165;43.016;25.784;2023-06-19T06:06:52;20.83;;;8.52;;
9522;SDS011;63165;43.016;25.784;2023-06-19T06:09:20;20.80;;;8.30;;
9522;SDS011;63165;43.016;25.784;2023-06-19T06:11:47;19.55;;;8.32;;
9522;SDS011;63165;43.016;25.784;2023-06-19T06:14:15;25.20;;;8.60;;
9522;SDS011;63165;43.016;25.784;2023-06-19T06:16:47;21.85;;;8.00;;
9522;SDS011;63165;43.016;25.784;2023-06-19T06:19:16;17.17;;;7.97;;
9522;SDS011;63165;43.016;25.784;2023-06-19T06:21:43;22.45;;;7.85;;
9522;SDS011;63165;43.016;25.784;2023-06-19T06:24:11;22.92;;;7.82;;
9522;SDS011;63165;43.016;25.784;2023-06-19T06:26:38;31.63;;;8.30;;
9522;SDS011;63165;43.016;25.784;2023-06-19T06:29:05;18.08;;;7.60;;
9522;SDS011;63165;43.016;25.784;2023-06-19T06:31:33;16.40;;;6.85;;
9522;SDS011;63165;43.016;25.784;2023-06-19T06:34:02;18.20;;;7.25;;
9522;SDS011;63165;43.016;25.784;2023-06-19T06:36:29;20.25;;;6.97;;
9522;SDS011;63165;43.016;25.784;2023-06-19T06:38:56;16.10;;;6.70;;
9522;SDS011;63165;43.016;25.784;2023-06-19T06:41:26;18.92;;;7.35;;
9522;SDS011;63165;43.016;25.784;2023-06-19T06:43:53;16.95;;;6.75;;
9522;SDS011;63165;43.016;25.784;2023-06-19T06:46:20;19.25;;;7.75;;
9522;SDS011;63165;43.016;25.784;2023-06-19T06:48:48;18.10;;;6.88;;
9522;SDS011;63165;43.016;25.784;2023-06-19T06:51:19;18.27;;;6.55;;
9522;SDS011;63165;43.016;25.784;2023-06-19T06:53:48;16.25;;;6.47;;
9522;SDS011;63165;43.016;25.784;2023-06-19T06:56:16;15.55;;;5.75;;
9522;SDS011;63165;43.016;25.784;2023-06-19T06:58:44;13.85;;;5.78;;
9522;SDS011;63165;43.016;25.784;2023-06-19T07:01:12;11.13;;;5.68;;
9522;SDS011;63165;43.016;25.784;2023-06-19T07:03:40;12.60;;;4.93;;
9522;SDS011;63165;43.016;25.784;2023-06-19T07:06:07;12.77;;;5.13;;
9522;SDS011;63165;43.016;25.784;2023-06-19T07:08:36;11.55;;;5.15;;
9522;SDS011;63165;43.016;25.784;2023-06-19T07:11:06;11.40;;;5.28;;
9522;SDS011;63165;43.016;25.784;2023-06-19T07:13:33;13.68;;;5.00;;
9522;SDS011;63165;43.016;25.784;2023-06-19T07:16:01;16.55;;;5.80;;
9522;SDS011;63165;43.016;25.784;2023-06-19T07:18:36;13.30;;;5.45;;
9522;SDS011;63165;43.016;25.784;2023-06-19T07:21:11;12.25;;;5.28;;
9522;SDS011;63165;43.016;25.784;2023-06-19T07:23:47;11.52;;;5.43;;
9522;SDS011;63165;43.016;25.784;2023-06-19T07:26:17;11.95;;;5.68;;
9522;SDS011;63165;43.016;25.784;2023-06-19T07:29:00;15.73;;;5.55;;
9522;SDS011;63165;43.016;25.784;2023-06-19T07:31:29;13.00;;;5.57;;
9522;SDS011;63165;43.016;25.784;2023-06-19T07:33:57;12.40;;;5.78;;
9522;SDS011;63165;43.016;25.784;2023-06-19T07:36:26;11.60;;;6.00;;
9522;SDS011;63165;43.016;25.784;2023-06-19T07:39:01;13.18;;;5.30;;
9522;SDS011;63165;43.016;25.784;2023-06-19T07:41:32;11.82;;;5.20;;
9522;SDS011;63165;43.016;25.784;2023-06-19T07:44:03;10.90;;;5.38;;
9522;SDS011;63165;43.016;25.784;2023-06-19T07:46:31;11.65;;;4.97;;
9522;SDS011;63165;43.016;25.784;2023-06-19T07:49:02;11.82;;;5.15;;
9522;SDS011;63165;43.016;25.784;2023-06-19T07:51:32;14.50;;;5.30;;
9522;SDS011;63165;43.016;25.784;2023-06-19T07:54:05;12.82;;;5.68;;
9522;SDS011;63165;43.016;25.784;2023-06-19T07:56:33;11.77;;;5.35;;
9522;SDS011;63165;43.016;25.784;2023-06-19T07:59:00;13.25;;;5.72;;
9522;SDS011;63165;43.016;25.784;2023-06-19T08:01:28;10.73;;;5.72;;
9522;SDS011;63165;43.016;25.784;2023-06-19T08:03:57;15.60;;;5.95;;
9522;SDS011;63165;43.016;25.784;2023-06-19T08:06:24;14.98;;;6.10;;
9522;SDS011;63165;43.016;25.784;2023-06-19T08:08:57;12.02;;;6.22;;
9522;SDS011;63165;43.016;25.784;2023-06-19T08:11:26;14.43;;;5.50;;
9522;SDS011;63165;43.016;25.784;2023-06-19T08:13:53;16.73;;;6.03;;
9522;SDS011;63165;43.016;25.784;2023-06-19T08:16:20;17.05;;;5.88;;
9522;SDS011;63165;43.016;25.784;2023-06-19T08:18:48;14.00;;;6.20;;
9522;SDS011;63165;43.016;25.784;2023-06-19T08:21:15;17.00;;;6.35;;
9522;SDS011;63165;43.016;25.784;2023-06-19T08:23:43;11.25;;;5.85;;
9522;SDS011;63165;43.016;25.784;2023-06-19T08:26:11;9.30;;;5.20;;
9522;SDS011;63165;43.016;25.784;2023-06-19T08:28:40;12.15;;;5.85;;
9522;SDS011;63165;43.016;25.784;2023-06-19T08:31:07;12.80;;;6.35;;
9522;SDS011;63165;43.016;25.784;2023-06-19T08:33:35;11.20;;;5.60;;
9522;SDS011;63165;43.016;25.784;2023-06-19T08:36:03;13.27;;;5.93;;
9522;SDS011;63165;43.016;25.784;2023-06-19T08:38:31;10.98;;;5.72;;
9522;SDS011;63165;43.016;25.784;2023-06-19T08:40:58;16.85;;;6.45;;
9522;SDS011;63165;43.016;25.784;2023-06-19T08:43:26;15.85;;;6.05;;
9522;SDS011;63165;43.016;25.784;2023-06-19T08:46:00;11.27;;;5.70;;
9522;SDS011;63165;43.016;25.784;2023-06-19T08:48:34;15.23;;;7.10;;
9522;SDS011;63165;43.016;25.784;2023-06-19T08:51:05;14.38;;;6.97;;
9522;SDS011;63165;43.016;25.784;2023-06-19T08:53:33;18.70;;;6.78;;
9522;SDS011;63165;43.016;25.784;2023-06-19T08:56:02;13.15;;;6.32;;
9522;SDS011;63165;43.016;25.784;2023-06-19T08:58:29;19.95;;;7.22;;
9522;SDS011;63165;43.016;25.784;2023-06-19T09:00:59;13.77;;;6.35;;
9522;SDS011;63165;43.016;25.784;2023-06-19T09:03:27;18.48;;;6.97;;
9522;SDS011;63165;43.016;25.784;2023-06-19T09:05:55;13.90;;;7.05;;
9522;SDS011;63165;43.016;25.784;2023-06-19T09:08:23;13.90;;;6.30;;
9522;SDS011;63165;43.016;25.784;2023-06-19T09:10:57;20.60;;;7.53;;
9522;SDS011;63165;43.016;25.784;2023-06-19T09:13:40;18.77;;;6.50;;
9522;SDS011;63165;43.016;25.784;2023-06-19T09:16:09;16.85;;;6.32;;
9522;SDS011;63165;43.016;25.784;2023-06-19T09:18:43;20.05;;;6.82;;
9522;SDS011;63165;43.016;25.784;2023-06-19T09:21:15;14.15;;;5.97;;
9522;SDS011;63165;43.016;25.784;2023-06-19T09:23:47;26.60;;;7.82;;
9522;SDS011;63165;43.016;25.784;2023-06-19T09:26:18;14.73;;;6.40;;
9522;SDS011;63165;43.016;25.784;2023-06-19T09:28:47;26.45;;;8.13;;
9522;SDS011;63165;43.016;25.784;2023-06-19T09:31:17;30.70;;;8.13;;
9522;SDS011;63165;43.016;25.784;2023-06-19T09:33:45;12.02;;;5.90;;
9522;SDS011;63165;43.016;25.784;2023-06-19T09:36:13;13.13;;;6.32;;
9522;SDS011;63165;43.016;25.784;2023-06-19T09:38:43;14.13;;;6.30;;
9522;SDS011;63165;43.016;25.784;2023-06-19T09:41:57;11.07;;;5.68;;
9522;SDS011;63165;43.016;25.784;2023-06-19T09:44:41;15.10;;;5.85;;
9522;SDS011;63165;43.016;25.784;2023-06-19T09:47:35;13.50;;;5.70;;
9522;SDS011;63165;43.016;25.784;2023-06-19T09:50:11;14.47;;;5.80;;
9522;SDS011;63165;43.016;25.784;2023-06-19T09:52:39;11.88;;;5.63;;
9522;SDS011;63165;43.016;25.784;2023-06-19T09:55:08;11.27;;;5.53;;
9522;SDS011;63165;43.016;25.784;2023-06-19T09:57:38;18.83;;;7.25;;
9522;SDS011;63165;43.016;25.784;2023-06-19T10:00:07;12.63;;;5.85;;
9522;SDS011;63165;43.016;25.784;2023-06-19T10:05:27;15.70;;;6.72;;
9522;SDS011;63165;43.016;25.784;2023-06-19T10:07:56;15.50;;;6.43;;
9522;SDS011;63165;43.016;25.784;2023-06-19T10:10:26;22.90;;;6.88;;
9522;SDS011;63165;43.016;25.784;2023-06-19T10:12:55;34.60;;;8.50;;
9522;SDS011;63165;43.016;25.784;2023-06-19T10:15:25;159.93;;;24.63;;
9522;SDS011;63165;43.016;25.784;2023-06-19T10:17:59;158.98;;;26.60;;
9522;SDS011;63165;43.016;25.784;2023-06-19T10:20:28;15.43;;;7.03;;
9522;SDS011;63165;43.016;25.784;2023-06-19T10:22:58;26.38;;;8.38;;
9522;SDS011;63165;43.016;25.784;2023-06-19T10:25:30;17.98;;;7.65;;
9522;SDS011;63165;43.016;25.784;2023-06-19T10:28:02;13.82;;;6.43;;
9522;SDS011;63165;43.016;25.784;2023-06-19T10:30:32;30.17;;;8.73;;
9522;SDS011;63165;43.016;25.784;2023-06-19T10:33:02;29.10;;;9.32;;
9522;SDS011;63165;43.016;25.784;2023-06-19T10:35:37;18.73;;;6.78;;
9522;SDS011;63165;43.016;25.784;2023-06-19T10:38:06;15.95;;;6.75;;
9522;SDS011;63165;43.016;25.784;2023-06-19T10:40:36;13.45;;;7.00;;
9522;SDS011;63165;43.016;25.784;2023-06-19T10:43:03;14.10;;;6.80;;
9522;SDS011;63165;43.016;25.784;2023-06-19T10:45:33;15.00;;;6.75;;
9522;SDS011;63165;43.016;25.784;2023-06-19T10:48:01;13.38;;;7.15;;
9522;SDS011;63165;43.016;25.784;2023-06-19T10:50:33;13.77;;;6.60;;
9522;SDS011;63165;43.016;25.784;2023-06-19T10:53:02;12.30;;;6.55;;
9522;SDS011;63165;43.016;25.784;2023-06-19T10:55:30;14.70;;;7.28;;
9522;SDS011;63165;43.016;25.784;2023-06-19T10:57:58;13.25;;;6.85;;
9522;SDS011;63165;43.016;25.784;2023-06-19T11:00:26;14.50;;;7.53;;
9522;SDS011;63165;43.016;25.784;2023-06-19T11:02:55;14.10;;;7.07;;
9522;SDS011;63165;43.016;25.784;2023-06-19T11:05:26;13.45;;;6.75;;
9522;SDS011;63165;43.016;25.784;2023-06-19T11:07:55;17.90;;;8.20;;
9522;SDS011;63165;43.016;25.784;2023-06-19T11:10:24;15.52;;;7.50;;
9522;SDS011;63165;43.016;25.784;2023-06-19T11:12:53;18.42;;;7.60;;
9522;SDS011;63165;43.016;25.784;2023-06-19T11:15:28;12.60;;;6.88;;
9522;SDS011;63165;43.016;25.784;2023-06-19T11:20:49;15.10;;;7.43;;
9522;SDS011;63165;43.016;25.784;2023-06-19T11:23:25;16.15;;;7.60;;
9522;SDS011;63165;43.016;25.784;2023-06-19T11:25:54;15.90;;;7.40;;
9522;SDS011;63165;43.016;25.784;2023-06-19T11:28:28;12.65;;;7.15;;
9522;SDS011;63165;43.016;25.784;2023-06-19T11:30:57;18.13;;;7.43;;
9522;SDS011;63165;43.016;25.784;2023-06-19T11:33:26;12.90;;;6.97;;
9522;SDS011;63165;43.016;25.784;2023-06-19T11:35:59;16.67;;;6.53;;
9522;SDS011;63165;43.016;25.784;2023-06-19T11:38:28;14.43;;;6.80;;
9522;SDS011;63165;43.016;25.784;2023-06-19T11:40:56;13.77;;;7.18;;
9522;SDS011;63165;43.016;25.784;2023-06-19T11:43:27;11.23;;;5.97;;
9522;SDS011;63165;43.016;25.784;2023-06-19T11:46:00;11.75;;;6.15;;
9522;SDS011;63165;43.016;25.784;2023-06-19T11:48:30;12.95;;;6.63;;
9522;SDS011;63165;43.016;25.784;2023-06-19T11:51:02;13.63;;;6.40;;
9522;SDS011;63165;43.016;25.784;2023-06-19T11:53:31;11.73;;;6.50;;
9522;SDS011;63165;43.016;25.784;2023-06-19T11:55:59;14.90;;;6.43;;
9522;SDS011;63165;43.016;25.784;2023-06-19T11:58:36;18.15;;;6.57;;
9522;SDS011;63165;43.016;25.784;2023-06-19T12:01:04;14.23;;;6.75;;
9522;SDS011;63165;43.016;25.784;2023-06-19T12:03:33;16.90;;;6.05;;
9522;SDS011;63165;43.016;25.784;2023-06-19T12:06:02;10.82;;;5.90;;
9522;SDS011;63165;43.016;25.784;2023-06-19T12:08:31;14.13;;;5.75;;
9522;SDS011;63165;43.016;25.784;2023-06-19T12:10:59;11.95;;;5.65;;
9522;SDS011;63165;43.016;25.784;2023-06-19T12:13:28;13.00;;;6.43;;
9522;SDS011;63165;43.016;25.784;2023-06-19T12:15:59;10.68;;;5.78;;
9522;SDS011;63165;43.016;25.784;2023-06-19T12:18:37;11.27;;;6.40;;
9522;SDS011;63165;43.016;25.784;2023-06-19T12:21:09;10.18;;;5.13;;
9522;SDS011;63165;43.016;25.784;2023-06-19T12:23:42;10.98;;;5.80;;
9522;SDS011;63165;43.016;25.784;2023-06-19T12:26:22;12.02;;;5.70;;
9522;SDS011;63165;43.016;25.784;2023-06-19T12:28:50;12.43;;;5.50;;
9522;SDS011;63165;43.016;25.784;2023-06-19T12:31:18;9.77;;;5.20;;
9522;SDS011;63165;43.016;25.784;2023-06-19T12:33:46;10.18;;;5.22;;
9522;SDS011;63165;43.016;25.784;2023-06-19T12:36:17;12.40;;;5.28;;
9522;SDS011;63165;43.016;25.784;2023-06-19T12:39:00;14.40;;;5.22;;
9522;SDS011;63165;43.016;25.784;2023-06-19T12:44:03;14.05;;;5.25;;
9522;SDS011;63165;43.016;25.784;2023-06-19T12:46:32;10.48;;;5.40;;
9522;SDS011;63165;43.016;25.784;2023-06-19T12:49:04;15.35;;;5.07;;
9522;SDS011;63165;43.016;25.784;2023-06-19T12:51:33;9.02;;;4.50;;
9522;SDS011;63165;43.016;25.784;2023-06-19T12:54:03;9.73;;;4.88;;
9522;SDS011;63165;43.016;25.784;2023-06-19T12:56:32;10.48;;;4.43;;
9522;SDS011;63165;43.016;25.784;2023-06-19T12:59:06;10.55;;;4.40;;
9522;SDS011;63165;43.016;25.784;2023-06-19T13:01:35;12.82;;;4.43;;
9522;SDS011;63165;43.016;25.784;2023-06-19T13:04:03;11.73;;;4.50;;
9522;SDS011;63165;43.016;25.784;2023-06-19T13:06:32;7.95;;;4.18;;
9522;SDS011;63165;43.016;25.784;2023-06-19T13:09:01;7.85;;;4.30;;
9522;SDS011;63165;43.016;25.784;2023-06-19T13:11:30;11.68;;;4.18;;
9522;SDS011;63165;43.016;25.784;2023-06-19T13:14:00;15.95;;;4.60;;
9522;SDS011;63165;43.016;25.784;2023-06-19T13:16:30;6.75;;;3.80;;
9522;SDS011;63165;43.016;25.784;2023-06-19T13:18:58;10.18;;;4.00;;
9522;SDS011;63165;43.016;25.784;2023-06-19T13:21:31;16.17;;;4.47;;
9522;SDS011;63165;43.016;25.784;2023-06-19T13:24:14;10.02;;;4.45;;
9522;SDS011;63165;43.016;25.784;2023-06-19T13:26:47;12.40;;;4.80;;
9522;SDS011;63165;43.016;25.784;2023-06-19T13:29:15;13.40;;;4.60;;
9522;SDS011;63165;43.016;25.784;2023-06-19T13:31:42;8.88;;;4.18;;
9522;SDS011;63165;43.016;25.784;2023-06-19T13:34:10;8.68;;;4.20;;
9522;SDS011;63165;43.016;25.784;2023-06-19T13:36:47;12.27;;;4.75;;
9522;SDS011;63165;43.016;25.784;2023-06-19T13:39:16;13.95;;;4.57;;
9522;SDS011;63165;43.016;25.784;2023-06-19T13:41:59;7.88;;;4.20;;
9522;SDS011;63165;43.016;25.784;2023-06-19T13:44:32;9.15;;;4.68;;
9522;SDS011;63165;43.016;25.784;2023-06-19T13:47:09;10.98;;;4.65;;
9522;SDS011;63165;43.016;25.784;2023-06-19T13:49:53;26.27;;;6.43;;
9522;SDS011;63165;43.016;25.784;2023-06-19T13:52:24;21.58;;;5.22;;
9522;SDS011;63165;43.016;25.784;2023-06-19T13:54:53;17.45;;;4.70;;
9522;SDS011;63165;43.016;25.784;2023-06-19T13:57:21;16.10;;;5.15;;
9522;SDS011;63165;43.016;25.784;2023-06-19T13:59:49;17.60;;;4.50;;
9522;SDS011;63165;43.016;25.784;2023-06-19T14:02:17;13.20;;;4.30;;
9522;SDS011;63165;43.016;25.784;2023-06-19T14:04:47;13.23;;;4.32;;
9522;SDS011;63165;43.016;25.784;2023-06-19T14:07:17;15.75;;;4.55;;
9522;SDS011;63165;43.016;25.784;2023-06-19T14:09:48;14.88;;;4.40;;
9522;SDS011;63165;43.016;25.784;2023-06-19T14:12:18;12.98;;;4.55;;
9522;SDS011;63165;43.016;25.784;2023-06-19T14:14:47;14.32;;;4.68;;
9522;SDS011;63165;43.016;25.784;2023-06-19T14:17:14;16.58;;;4.97;;
9522;SDS011;63165;43.016;25.784;2023-06-19T14:19:42;14.40;;;5.15;;
9522;SDS011;63165;43.016;25.784;2023-06-19T14:22:12;13.82;;;5.22;;
9522;SDS011;63165;43.016;25.784;2023-06-19T14:24:43;14.52;;;5.55;;
9522;SDS011;63165;43.016;25.784;2023-06-19T14:27:19;10.13;;;4.67;;
9522;SDS011;63165;43.016;25.784;2023-06-19T14:29:48;12.88;;;5.30;;
9522;SDS011;63165;43.016;25.784;2023-06-19T14:32:16;14.95;;;5.57;;
9522;SDS011;63165;43.016;25.784;2023-06-19T14:34:47;16.55;;;5.95;;
9522;SDS011;63165;43.016;25.784;2023-06-19T14:37:14;13.35;;;5.70;;
9522;SDS011;63165;43.016;25.784;2023-06-19T14:39:42;19.23;;;6.22;;
9522;SDS011;63165;43.016;25.784;2023-06-19T14:42:10;16.15;;;5.47;;
9522;SDS011;63165;43.016;25.784;2023-06-19T14:44:40;19.15;;;6.10;;
9522;SDS011;63165;43.016;25.784;2023-06-19T14:47:08;14.02;;;5.97;;
9522;SDS011;63165;43.016;25.784;2023-06-19T14:49:38;15.88;;;6.05;;
9522;SDS011;63165;43.016;25.784;2023-06-19T14:52:07;13.60;;;5.57;;
9522;SDS011;63165;43.016;25.784;2023-06-19T14:54:35;16.02;;;6.25;;
9522;SDS011;63165;43.016;25.784;2023-06-19T14:57:03;15.98;;;6.05;;